Last 48 Hours

Top Stn/Summit - 11,053ft

15 Minute Data | America/Los_Angeles
as of 5/5/26 2:49 AM PDT
Date & Time Temp (°F) WindChill (°F) RH (%) Dew Pt (°F) Wet Bulb (°F) Wind Dir (°) Wind Spd (mph) Wind Gust (mph) Wind Gst Dir (°) Daily Min Temp (°F) Daily Max Temp (°F) Daily Max Wind (mph)
5/5/26 - 0245 23.1 11.2 98 22.6 22.8 N | 350 10.8 14.4 N | 350 23.0 23.7 16.7
5/5/26 - 0230 23.1 11.3 98 22.6 22.8 N | 350 10.6 14.4 N | 350 23.0 23.7 16.7
5/5/26 - 0215 23.1 11.4 98 22.5 22.8 N | 350 10.4 14.3 N | 350 23.0 23.7 16.7
5/5/26 - 0200 23.3 10.8 98 22.8 23.0 N | 350 11.8 16.7 N | 350 23.1 23.7 16.7
5/5/26 - 0145 23.3 11.1 98 22.8 23.0 N | 350 11.6 15.4 N | 350 23.1 23.7 16.2
5/5/26 - 0130 23.4 10.9 98 22.9 23.1 N | 350 12.2 16.2 N | 350 23.2 23.7 16.2
5/5/26 - 0115 23.5 11.2 98 23.1 23.3 N | 350 11.9 16.1 N | 350 23.4 23.7 16.1
5/5/26 - 0100 23.3 11.6 98 22.8 23.0 N | 350 10.6 14.5 N | 350 22.4 29.6 37.0
5/5/26 - 0045 23.4 12.4 98 22.9 23.1 N | 350 9.5 13.2 N | 350 22.4 29.6 37.0
5/5/26 - 0030 23.5 13.4 98 23.0 23.2 N | 350 8.3 11.2 N | 350 22.4 29.6 37.0
5/5/26 - 0015 23.6 14.9 98 23.1 23.3 N | 350 6.4 8.8 N | 350 22.4 29.6 37.0
5/5/26 - 0000 23.7 16.0 98 23.2 23.4 N | 350 4.8 8.0 N | 350 22.4 29.6 37.0
5/4/26 - 2345 23.7 16.4 98 23.2 23.4 N | 350 5.0 6.8 N | 350 22.4 29.6 37.0
5/4/26 - 2330 23.8 16.7 98 23.4 23.5 N | 350 4.3 7.1 N | 350 22.4 29.6 37.0
5/4/26 - 2315 23.8 15.0 98 23.3 23.5 N | 350 6.4 9.0 N | 350 22.4 29.6 37.0
5/4/26 - 2300 24.2 13.0 98 23.8 24.0 N | 350 9.7 14.4 N | 350 22.4 29.6 37.0
5/4/26 - 2245 24.4 12.3 99 24.0 24.1 N | 350 10.9 16.6 N | 350 22.4 29.6 37.0
5/4/26 - 2230 23.9 11.4 98 23.5 23.7 N | 350 12.7 16.6 N | 350 22.4 29.6 37.0
5/4/26 - 2215 23.9 10.6 98 23.4 23.6 N | 350 14.3 18.6 N | 350 22.4 29.6 37.0
5/4/26 - 2200 23.9 10.0 98 23.5 23.6 N | 349 15.3 21.1 N | 353 22.4 29.6 37.0
5/4/26 - 2145 24.2 9.8 98 23.8 24.0 NNW | 338 16.8 22.9 N | 350 22.4 29.6 37.0
5/4/26 - 2130 24.2 9.1 98 23.8 23.9 SW | 224 18.5 25.2 SW | 214 22.4 29.6 37.0
5/4/26 - 2115 24.3 9.1 98 23.9 24.0 SW | 219 19.5 25.1 SSW | 212 22.4 29.6 37.0
5/4/26 - 2100 24.5 9.1 99 24.2 24.3 SW | 221 20.6 26.6 SSW | 213 22.4 29.6 37.0
5/4/26 - 2045 24.3 8.7 98 24.0 24.1 SW | 222 20.0 28.2 SW | 220 22.4 29.6 37.0
5/4/26 - 2030 24.6 9.1 99 24.2 24.3 SW | 221 20.5 27.0 SW | 220 22.4 29.6 37.0
5/4/26 - 2015 24.3 8.8 98 24.0 24.1 SW | 222 20.3 27.0 SW | 221 22.4 29.6 37.0
5/4/26 - 2000 24.2 9.1 98 23.8 24.0 SW | 222 19.4 25.0 SW | 222 22.4 29.6 37.0
5/4/26 - 1945 24.3 8.8 98 23.9 24.0 SW | 222 19.8 27.1 SW | 217 22.4 29.6 37.0
5/4/26 - 1930 24.2 8.4 98 23.9 24.0 SW | 221 21.6 27.6 SW | 224 22.4 29.6 37.0
5/4/26 - 1915 24.2 8.0 98 23.9 24.0 SW | 221 22.6 30.0 SW | 218 22.4 29.6 37.0
5/4/26 - 1900 24.4 7.5 99 24.0 24.1 SW | 220 24.8 32.9 SW | 219 22.4 29.6 37.0
5/4/26 - 1845 24.6 7.9 99 24.3 24.3 SW | 220 24.6 32.1 SW | 215 22.4 29.6 37.0
5/4/26 - 1830 24.8 8.4 99 24.5 24.6 SW | 223 24.0 31.3 SW | 217 22.4 29.6 37.0
5/4/26 - 1815 25.2 8.7 99 24.9 25.0 SW | 219 23.9 32.9 SSW | 209 22.4 29.6 37.0
5/4/26 - 1800 25.4 9.1 99 25.2 25.2 SW | 218 23.8 32.5 SW | 220 22.4 29.6 37.0
5/4/26 - 1745 25.4 9.4 99 25.2 25.2 SW | 219 22.4 30.4 SW | 215 22.4 29.6 37.0
5/4/26 - 1730 25.4 9.6 100 25.3 25.2 SW | 220 22.6 29.8 SW | 219 22.4 29.6 37.0
5/4/26 - 1715 25.5 9.6 100 25.4 25.3 SW | 220 22.7 30.3 SW | 222 22.4 29.6 37.0
5/4/26 - 1700 26.5 11.5 100 26.4 26.3 SW | 218 18.4 29.6 SW | 214 22.4 29.6 37.0
5/4/26 - 1645 26.1 11.8 100 26.0 26.0 SW | 219 16.9 26.2 SW | 215 22.4 29.6 37.0
5/4/26 - 1630 26.2 11.8 99 26.0 26.0 SW | 219 18.2 26.2 SW | 214 22.4 29.6 37.0
5/4/26 - 1615 26.6 12.7 99 26.4 26.4 SW | 216 17.7 23.9 SSW | 213 22.4 29.6 37.0
5/4/26 - 1600 26.0 11.3 98 25.5 25.7 SW | 222 18.7 26.1 SSW | 213 22.4 29.6 37.0
5/4/26 - 1545 26.6 12.3 99 26.3 26.4 SW | 217 18.2 25.8 SW | 216 22.4 29.6 37.0
5/4/26 - 1530 25.5 10.5 98 25.1 25.2 SW | 222 19.2 27.3 SW | 217 22.4 29.6 37.0
5/4/26 - 1515 25.8 10.0 99 25.5 25.5 SW | 217 21.9 31.1 SW | 214 22.4 29.6 37.0
5/4/26 - 1500 25.9 8.9 99 25.6 25.6 SW | 214 27.4 36.2 SSW | 209 22.4 29.6 37.0
5/4/26 - 1445 27.0 10.8 97 26.2 26.6 SW | 214 23.9 37.0 SW | 214 22.4 29.6 37.0
5/4/26 - 1430 27.7 14.5 96 26.7 27.2 SW | 214 15.5 23.7 SSW | 213 22.4 29.6 26.5
5/4/26 - 1415 27.3 15.0 96 26.3 26.8 SW | 217 13.1 19.5 SSW | 201 22.4 29.6 26.5
5/4/26 - 1400 27.4 16.1 97 26.5 27.0 SW | 215 11.2 16.5 SSW | 205 22.4 29.6 26.5
5/4/26 - 1345 28.9 19.2 96 28.0 28.4 SSW | 205 7.3 15.2 SSW | 192 22.4 29.6 26.5
5/4/26 - 1330 28.4 22.8 98 27.9 28.1 SSE | 154 2.4 7.7 SSW | 205 22.4 29.6 26.5
5/4/26 - 1315 26.4 17.0 97 25.8 26.1 ESE | 106 6.9 12.5 E | 99 22.4 29.6 26.5
5/4/26 - 1300 26.6 15.6 98 26.0 26.3 ESE | 110 10.8 14.6 ESE | 119 22.4 29.6 26.5
5/4/26 - 1245 26.8 16.5 99 26.6 26.6 SSE | 148 10.1 13.1 SSE | 153 22.4 29.6 26.5
5/4/26 - 1230 26.3 14.6 98 25.9 26.0 SSE | 158 12.3 16.1 SSE | 156 22.4 29.6 26.5
5/4/26 - 1215 26.2 14.7 99 25.9 26.0 SSE | 165 11.6 16.0 SSE | 165 22.4 29.6 26.5
5/4/26 - 1200 24.9 10.7 98 24.3 24.6 S | 170 13.0 26.5 SSE | 156 22.4 29.6 26.5
5/4/26 - 1145 23.8 11.9 97 23.1 23.4 ESE | 117 6.8 19.4 E | 90 22.4 29.6 25.3
5/4/26 - 1130 22.8 12.7 96 21.8 22.4 NNW | 346 6.9 11.8 NW | 321 22.4 29.6 25.3
5/4/26 - 1115 24.0 15.2 97 23.2 23.6 NW | 326 3.7 11.9 NW | 324 23.0 29.6 25.3
5/4/26 - 1100 26.8 17.5 99 26.6 26.6 SW | 217 6.6 12.6 SW | 219 24.5 29.6 25.3
5/4/26 - 1045 25.9 12.8 99 25.7 25.7 SW | 216 13.5 21.9 SW | 222 24.5 29.6 25.3
5/4/26 - 1030 28.1 15.9 100 28.1 28.0 SSW | 205 13.3 20.7 SW | 217 24.5 29.6 25.3
5/4/26 - 1015 29.0 19.9 100 29.0 28.9 SSW | 208 5.4 15.2 SSW | 208 24.5 29.6 25.3
5/4/26 - 1000 27.2 - 99 27.1 27.1 NNW | 327 0.8 3.0 S | 189 24.5 28.9 25.3
5/4/26 - 0945 26.1 16.3 99 25.9 25.9 N | 8 7.3 13.0 N | 5 24.5 28.5 25.3
5/4/26 - 0930 26.4 16.9 99 26.3 26.2 N | 10 8.0 11.6 N | 4 24.5 28.5 25.3
5/4/26 - 0915 27.0 19.6 100 27.0 26.9 NNE | 16 3.5 10.3 NNE | 23 24.5 28.5 25.3
5/4/26 - 0900 26.5 17.2 100 26.4 26.3 N | 6 5.1 13.9 N | 2 24.5 28.5 25.3
5/4/26 - 0845 26.2 14.2 99 26.0 26.0 N | 358 11.0 18.7 N | 6 24.5 28.5 25.3
5/4/26 - 0830 26.4 15.0 100 26.3 26.3 N | 2 11.0 16.2 NW | 323 24.5 28.5 25.3
5/4/26 - 0815 26.5 13.9 100 26.4 26.3 N | 9 12.0 21.3 NNE | 30 24.5 28.5 25.3
5/4/26 - 0800 26.3 15.9 99 26.2 26.1 NNE | 16 8.9 14.2 N | 7 24.5 28.5 25.3
5/4/26 - 0745 26.0 13.7 99 25.9 25.8 N | 357 12.4 18.9 N | 349 24.5 28.5 25.3
5/4/26 - 0730 25.9 12.6 99 25.8 25.7 N | 9 14.7 21.8 NNE | 23 24.5 28.5 25.3
5/4/26 - 0715 25.8 11.6 99 25.6 25.6 N | 7 15.9 25.3 N | 10 24.5 28.5 25.3
5/4/26 - 0700 25.6 11.7 99 25.4 25.4 NNE | 12 16.5 22.5 NNE | 15 24.5 28.5 22.8
5/4/26 - 0645 25.0 11.7 99 24.8 24.8 N | 10 13.7 20.9 N | 2 24.5 28.5 22.8
5/4/26 - 0630 25.5 11.8 100 25.5 25.3 N | 9 15.1 22.8 N | 11 25.2 28.5 22.8
5/4/26 - 0615 25.5 12.8 100 25.5 25.3 N | 4 13.8 18.3 N | 0 25.2 28.5 18.3
5/4/26 - 0600 25.5 13.5 100 25.5 25.4 N | 1 10.5 18.3 N | 3 25.2 28.5 18.3
5/4/26 - 0545 25.6 13.6 100 25.5 25.4 N | 2 11.2 17.6 N | 0 25.2 28.5 18.2
5/4/26 - 0530 25.5 13.6 100 25.5 25.4 N | 358 11.3 17.1 N | 2 25.2 28.5 18.2
5/4/26 - 0515 25.6 13.3 100 25.6 25.4 N | 6 11.9 18.2 N | 9 25.2 28.5 18.2
5/4/26 - 0500 25.6 14.0 100 25.6 25.5 N | 4 11.0 16.1 N | 1 25.2 28.5 17.2
5/4/26 - 0445 25.6 13.8 100 25.6 25.4 N | 5 10.4 17.2 N | 3 25.2 28.5 17.2
5/4/26 - 0430 25.6 13.6 100 25.6 25.4 N | 4 12.2 16.8 N | 4 25.2 28.5 16.8
5/4/26 - 0415 25.5 13.7 100 25.5 25.3 N | 358 11.6 16.1 N | 0 25.2 28.5 16.1
5/4/26 - 0400 25.4 14.6 100 25.4 25.3 NNW | 346 8.7 15.0 NNW | 348 25.2 28.5 15.0
5/4/26 - 0345 25.4 16.6 99 25.3 25.2 N | 3 6.2 10.5 N | 349 25.2 28.5 11.0
5/4/26 - 0330 25.9 16.8 97 25.2 25.5 N | 359 7.0 11.0 NNW | 347 25.6 28.5 11.0
5/4/26 - 0315 26.7 18.9 94 25.2 26.0 N | 2 5.9 8.6 N | 7 26.0 28.5 8.6
5/4/26 - 0300 26.5 20.2 94 25.1 25.9 W | 266 3.5 7.3 NNW | 338 26.0 28.5 8.5
5/4/26 - 0245 27.7 - 91 25.4 26.8 SW | 233 0.9 4.8 SW | 234 26.0 28.5 8.5
5/4/26 - 0230 27.7 - 94 26.2 27.1 SW | 232 0.8 2.1 SW | 232 26.0 28.4 8.5
5/4/26 - 0215 27.8 21.2 92 25.7 26.9 SW | 232 4.5 7.4 SW | 234 26.0 28.4 8.5
5/4/26 - 0200 27.6 21.7 90 25.1 26.6 SW | 234 4.4 6.1 SW | 235 26.0 28.4 8.5
5/4/26 - 0145 27.4 19.8 91 25.2 26.6 SW | 236 6.2 8.5 SW | 236 26.0 28.4 8.5
5/4/26 - 0130 27.2 22.8 95 26.0 26.7 WSW | 238 1.8 5.9 WSW | 238 26.0 28.4 5.9
5/4/26 - 0115 27.0 22.7 93 25.2 26.3 WSW | 237 2.0 5.5 WSW | 238 26.0 28.4 5.5
5/4/26 - 0100 27.3 22.2 93 25.6 26.6 SW | 236 3.1 5.6 SW | 236 25.6 37.2 30.8
5/4/26 - 0045 26.1 - 93 24.4 25.4 WSW | 237 2.1 3.8 WSW | 238 25.6 37.2 30.8
5/4/26 - 0030 27.3 - 91 25.0 26.4 SW | 235 0.9 3.0 SW | 236 26.4 37.2 30.8
5/4/26 - 0015 26.7 22.8 94 25.3 26.1 SW | 235 2.0 4.6 SW | 235 26.4 37.2 30.8
5/4/26 - 0000 26.9 20.6 94 25.3 26.3 SW | 236 4.2 6.9 SW | 235 26.6 37.2 30.8
5/3/26 - 2345 27.4 23.2 92 25.3 26.5 SW | 236 1.4 5.8 SW | 236 26.8 37.2 30.8
5/3/26 - 2330 28.2 23.0 87 24.7 26.9 WSW | 241 2.0 7.1 WSW | 237 26.8 37.2 30.8
5/3/26 - 2315 28.8 - 83 24.2 27.1 NW | 323 0.2 0.2 NNW | 330 26.8 37.2 30.8
5/3/26 - 2300 29.2 - 80 23.8 27.3 NNW | 330 0.2 0.2 NNW | 330 26.8 37.2 30.8
5/3/26 - 2245 28.3 - 83 23.7 26.6 NNW | 330 0.2 0.5 NNW | 330 26.8 37.2 30.8
5/3/26 - 2230 28.6 25.3 83 24.0 26.9 E | 95 1.4 4.8 NNE | 17 26.8 37.2 30.8
5/3/26 - 2215 29.2 22.0 88 26.1 28.0 SSW | 193 5.1 9.4 S | 180 26.8 37.2 30.8
5/3/26 - 2200 28.9 18.7 89 26.1 27.8 SSW | 204 9.5 15.3 SSW | 200 26.8 37.2 30.8
5/3/26 - 2145 29.1 18.1 87 25.6 27.8 SSW | 194 11.8 17.3 S | 181 26.8 37.2 30.8
5/3/26 - 2130 29.1 19.0 88 26.1 28.0 S | 175 9.6 15.1 S | 173 26.8 37.2 30.8
5/3/26 - 2115 28.9 20.8 93 27.1 28.2 S | 174 6.5 10.5 SSE | 158 26.8 37.2 30.8
5/3/26 - 2100 28.4 19.8 98 27.8 28.1 SSW | 200 7.6 10.7 SSW | 200 26.8 37.2 30.8
5/3/26 - 2045 27.7 16.0 98 27.4 27.5 S | 175 11.4 19.2 SSE | 159 26.8 37.2 30.8
5/3/26 - 2030 27.8 14.2 99 27.6 27.6 S | 170 16.8 24.8 S | 170 26.8 37.2 30.8
5/3/26 - 2015 28.1 15.5 100 28.1 28.0 S | 191 13.9 22.3 S | 170 26.8 37.2 30.8
5/3/26 - 2000 28.1 15.8 100 28.1 28.0 SSW | 198 14.7 19.6 SSW | 196 26.8 37.2 30.8
5/3/26 - 1945 27.6 15.3 100 27.6 27.5 SW | 214 14.6 19.3 SW | 218 26.8 37.2 30.8
5/3/26 - 1930 27.2 14.6 100 27.2 27.1 SW | 222 15.1 19.4 SW | 224 26.9 37.2 30.8
5/3/26 - 1915 27.5 13.8 100 27.4 27.3 SW | 220 17.0 24.9 SW | 215 27.3 37.2 30.8
5/3/26 - 1900 27.8 14.6 99 27.5 27.5 SW | 215 16.8 22.1 SW | 215 27.6 37.2 30.8
5/3/26 - 1845 28.7 17.7 98 28.2 28.4 SW | 215 10.0 18.6 SW | 222 27.8 37.2 30.8
5/3/26 - 1830 30.0 18.8 95 28.8 29.5 SSW | 209 11.9 19.3 SW | 217 29.0 37.2 30.8
5/3/26 - 1815 31.0 22.6 92 28.9 30.2 SSW | 198 7.8 12.0 SSW | 195 29.0 37.2 30.8
5/3/26 - 1800 30.5 20.4 86 26.9 29.1 SSW | 212 10.5 15.7 SW | 223 29.0 37.2 30.8
5/3/26 - 1745 31.6 21.2 85 27.7 30.1 SSW | 209 11.0 18.5 SW | 223 29.0 37.2 30.8
5/3/26 - 1730 31.1 18.5 88 27.9 29.8 SW | 219 16.6 25.0 SW | 224 29.0 37.2 30.8
5/3/26 - 1715 31.5 19.5 87 28.2 30.2 SW | 218 14.8 24.4 SW | 227 29.0 37.2 30.8
5/3/26 - 1700 30.7 18.2 90 28.1 29.6 SW | 231 15.7 24.4 SW | 222 29.0 37.2 30.8
5/3/26 - 1645 30.0 17.3 94 28.4 29.3 SW | 226 16.6 24.0 SW | 218 29.0 37.2 30.8
5/3/26 - 1630 29.4 16.6 94 27.8 28.7 SW | 228 15.6 24.5 SW | 225 29.0 37.2 30.8
5/3/26 - 1615 30.3 18.2 90 27.9 29.3 SW | 227 15.4 21.9 SW | 232 29.7 37.2 30.8
5/3/26 - 1600 32.2 21.1 82 27.4 30.4 SW | 224 13.6 20.9 SW | 228 29.9 37.2 30.8
5/3/26 - 1545 34.5 26.4 75 27.4 31.8 SSW | 210 7.7 13.9 SSW | 211 29.9 37.2 30.8
5/3/26 - 1530 33.2 24.6 79 27.3 31.0 SW | 215 7.0 15.5 SW | 226 29.9 37.2 30.8
5/3/26 - 1515 33.5 23.5 76 26.8 31.0 SW | 215 11.7 18.2 SW | 219 29.9 37.2 30.8
5/3/26 - 1500 32.5 22.5 77 26.2 30.1 SSW | 207 11.5 16.9 SSW | 203 29.9 37.2 30.8
5/3/26 - 1445 33.5 23.1 74 26.1 30.8 SSW | 199 12.4 20.2 SSW | 192 29.9 37.2 30.8
5/3/26 - 1430 33.2 23.6 76 26.5 30.7 SSW | 203 10.8 16.7 SW | 215 29.9 37.2 30.8
5/3/26 - 1415 31.9 20.8 77 25.7 29.6 SW | 215 13.9 20.6 SW | 220 29.9 37.2 30.8
5/3/26 - 1400 32.4 22.0 73 24.9 29.7 SW | 220 10.9 19.9 SSW | 213 29.9 37.2 30.8
5/3/26 - 1345 32.4 22.8 73 24.9 29.7 SW | 222 10.4 16.2 SW | 214 29.9 37.2 30.8
5/3/26 - 1330 32.0 21.4 73 24.2 29.2 SW | 223 11.2 19.4 SW | 229 29.9 37.2 30.8
5/3/26 - 1315 32.1 22.3 73 24.4 29.3 SW | 228 10.0 17.0 SW | 227 29.9 37.2 30.8
5/3/26 - 1300 30.9 19.7 75 24.0 28.4 SW | 225 13.2 19.6 SW | 228 29.9 37.2 30.8
5/3/26 - 1245 30.7 18.8 76 24.0 28.3 SW | 218 14.8 22.1 SSW | 208 29.9 37.2 30.8
5/3/26 - 1230 30.3 17.0 77 23.9 28.0 SW | 222 17.3 28.2 SW | 218 29.9 37.2 30.8
5/3/26 - 1215 30.6 16.6 77 24.4 28.4 SW | 216 22.1 30.1 SW | 216 30.2 37.2 30.8
5/3/26 - 1200 31.6 18.2 76 24.9 29.2 SW | 216 21.2 29.1 SW | 215 31.2 37.2 30.8
5/3/26 - 1145 31.5 17.8 78 25.4 29.2 SW | 218 21.4 29.7 SW | 215 31.2 37.2 30.8
5/3/26 - 1130 32.3 19.1 76 25.5 29.8 SW | 224 19.4 30.8 SW | 217 31.4 37.2 30.8
5/3/26 - 1115 35.4 24.2 69 26.2 32.0 SSW | 213 16.1 25.2 SSW | 205 32.0 37.2 25.2
5/3/26 - 1100 35.3 25.5 71 26.9 32.1 SSW | 208 11.2 20.5 SW | 219 32.0 36.9 21.6
5/3/26 - 1045 34.2 26.9 74 26.6 31.3 WNW | 282 3.9 14.1 SW | 223 32.0 36.6 21.6
5/3/26 - 1030 34.6 28.8 74 27.1 31.8 NNE | 14 4.3 9.3 NNE | 24 32.0 36.6 21.6
5/3/26 - 1015 33.7 28.2 73 25.9 30.8 NNE | 19 3.4 8.9 NNE | 16 32.0 35.2 21.6
5/3/26 - 1000 32.9 24.7 73 25.4 30.2 NNE | 20 8.1 12.8 NNE | 28 32.0 35.2 21.6
5/3/26 - 0945 32.6 24.4 74 25.2 30.0 NNE | 23 7.7 12.8 NNE | 14 32.0 35.2 21.6
5/3/26 - 0930 32.5 25.5 73 24.7 29.6 NE | 36 6.0 9.6 NNE | 21 32.0 35.2 21.6
5/3/26 - 0915 33.0 24.1 72 25.0 30.1 NE | 39 9.6 13.9 NE | 47 32.1 35.2 21.6
5/3/26 - 0900 33.6 24.8 66 23.5 30.0 ENE | 65 9.0 14.5 ENE | 64 32.1 35.2 21.6
5/3/26 - 0845 33.0 23.6 68 23.5 29.7 ENE | 58 10.5 15.9 NE | 51 32.1 35.2 21.6
5/3/26 - 0830 33.2 22.8 65 22.6 29.5 ENE | 61 11.4 20.0 ENE | 60 32.1 35.2 21.6
5/3/26 - 0815 32.9 23.4 66 22.7 29.4 ENE | 61 9.8 16.8 E | 80 32.1 35.2 21.6
5/3/26 - 0800 34.2 24.6 55 19.8 29.4 ENE | 74 11.3 17.4 E | 82 32.1 35.2 21.6
5/3/26 - 0745 33.8 23.1 59 20.7 29.3 E | 83 12.8 21.6 E | 90 32.1 35.2 21.6
5/3/26 - 0730 33.0 24.0 65 22.6 29.3 ENE | 68 9.2 14.9 ENE | 62 32.1 35.0 21.0
5/3/26 - 0715 33.6 25.6 66 23.3 29.9 ENE | 63 8.3 12.3 ENE | 64 32.1 35.0 21.0
5/3/26 - 0700 34.4 26.4 61 22.4 30.2 ENE | 77 8.2 12.8 E | 86 32.1 35.0 21.0
5/3/26 - 0645 33.3 27.2 70 24.5 30.1 E | 85 4.5 8.8 E | 84 32.1 34.9 21.0
5/3/26 - 0630 33.2 23.5 58 20.0 28.8 E | 95 9.0 18.8 ESE | 112 32.1 34.9 21.0
5/3/26 - 0615 33.1 23.7 55 18.7 28.4 E | 97 11.0 15.4 E | 93 32.1 34.9 21.0
5/3/26 - 0600 33.6 26.9 56 19.6 28.9 E | 84 5.2 10.3 E | 84 32.1 34.9 21.0
5/3/26 - 0545 34.3 - 58 21.0 29.8 E | 82 1.5 3.9 E | 83 32.1 34.9 21.0
5/3/26 - 0530 34.4 - 60 22.0 30.1 E | 81 0.6 2.2 E | 81 32.1 34.9 21.0
5/3/26 - 0515 34.3 - 60 21.7 30.0 E | 79 0.5 3.2 E | 79 32.1 34.9 21.0
5/3/26 - 0500 33.9 - 60 21.4 29.6 ENE | 78 0.3 1.1 ENE | 78 32.1 34.9 21.0
5/3/26 - 0445 33.8 - 60 21.2 29.4 ENE | 78 0.3 1.7 ENE | 78 32.1 34.9 21.0
5/3/26 - 0430 33.6 30.4 60 21.4 29.4 E | 79 0.9 6.3 ENE | 78 32.1 34.9 21.0
5/3/26 - 0415 33.3 - 67 23.4 29.8 E | 79 1.9 3.7 E | 79 32.1 34.9 21.0
5/3/26 - 0400 33.3 27.0 67 23.5 29.8 E | 80 5.3 9.1 E | 79 32.1 34.9 21.0
5/3/26 - 0345 33.9 29.2 64 22.9 30.0 E | 84 2.9 7.2 E | 83 32.1 34.9 21.0
5/3/26 - 0330 33.7 28.9 64 22.9 29.9 E | 84 4.2 6.3 E | 84 32.1 34.9 21.0
5/3/26 - 0315 34.0 27.9 66 24.0 30.4 E | 98 5.3 8.7 ESE | 111 32.1 34.9 21.0
5/3/26 - 0300 34.3 27.0 71 25.9 31.2 SSE | 166 7.1 11.0 SSE | 168 32.1 34.9 21.0
5/3/26 - 0245 34.6 25.1 71 26.3 31.5 S | 178 11.4 17.5 S | 173 32.1 34.9 21.0
Max 35.4 30.4 100 29.0 32.1 - 27.4 37.0 - 32.1 37.2 37.0
Avg 28.2 17.1 89 25.1 27.0 - 11.0 16.8 - - - -
Min 22.8 7.5 55 18.7 22.4 - 0.2 0.2 - 22.4 23.7 5.5